Time;durP1;ratioP1;P1;durP2;ratioP2;P2;SDS_P1;SDS_P2;PMS_P1;PMS_P2;Temp;Humidity;BMP_temperature;BMP_pressure;BME280_temperature;BME280_humidity;BME280_pressure;Samples;Min_cycle;Max_cycle;Signal;HPM_P1;HPM_P2
2022/02/22 00:00:38;;;;;;;9.48;1.65;;;;;;;;;;5073670;28;20073;-67
2022/02/22 00:03:24;;;;;;;5.15;1.40;;;;;;;;;;5057749;28;20032;-66
2022/02/22 00:06:09;;;;;;;9.43;2.03;;;;;;;;;;5064050;28;20032;-67
2022/02/22 00:08:54;;;;;;;5.68;1.77;;;;;;;;;;5060725;28;20081;-71
2022/02/22 00:11:40;;;;;;;9.32;1.77;;;;;;;;;;5073548;28;20066;-70
2022/02/22 00:14:25;;;;;;;6.35;1.58;;;;;;;;;;5053414;28;20108;-72
2022/02/22 00:17:10;;;;;;;7.00;1.40;;;;;;;;;;5072070;28;20028;-70
2022/02/22 00:19:55;;;;;;;9.23;2.25;;;;;;;;;;5055743;28;20399;-69
2022/02/22 00:22:41;;;;;;;8.65;1.90;;;;;;;;;;5085963;28;20035;-71
2022/02/22 00:25:26;;;;;;;3.00;1.20;;;;;;;;;;5064118;28;20027;-67
2022/02/22 00:28:11;;;;;;;9.95;1.83;;;;;;;;;;5055272;28;20131;-67
2022/02/22 00:30:57;;;;;;;9.23;1.88;;;;;;;;;;5070909;28;20039;-64
2022/02/22 00:33:44;;;;;;;7.20;1.80;;;;;;;;;;5066420;28;20044;-64
2022/02/22 00:36:30;;;;;;;5.80;1.60;;;;;;;;;;5047575;28;20460;-67
2022/02/22 00:39:16;;;;;;;10.32;1.90;;;;;;;;;;5068381;28;20076;-66
2022/02/22 00:42:01;;;;;;;9.32;2.17;;;;;;;;;;5067032;28;20101;-64
2022/02/22 00:44:46;;;;;;;8.63;2.17;;;;;;;;;;5071870;28;20636;-69
2022/02/22 00:47:32;;;;;;;11.70;2.90;;;;;;;;;;5062897;28;20036;-67
2022/02/22 00:50:17;;;;;;;8.68;2.25;;;;;;;;;;5069627;28;20102;-67
2022/02/22 00:53:02;;;;;;;8.05;1.75;;;;;;;;;;5073334;28;20521;-66
2022/02/22 00:55:48;;;;;;;5.90;1.90;;;;;;;;;;5060625;28;20028;-66
2022/02/22 00:58:33;;;;;;;8.48;2.10;;;;;;;;;;5069963;28;20032;-68
2022/02/22 01:01:18;;;;;;;8.48;1.90;;;;;;;;;;5070903;28;20070;-67
2022/02/22 01:04:04;;;;;;;8.48;1.60;;;;;;;;;;5072460;28;20020;-69
2022/02/22 01:06:49;;;;;;;10.80;2.60;;;;;;;;;;5072442;28;20036;-67
2022/02/22 01:09:35;;;;;;;9.65;2.50;;;;;;;;;;5061998;28;20027;-66
2022/02/22 01:12:21;;;;;;;7.55;1.75;;;;;;;;;;5055975;28;20455;-66
2022/02/22 01:15:06;;;;;;;8.50;2.15;;;;;;;;;;5050169;28;20501;-66
2022/02/22 01:17:51;;;;;;;6.75;2.00;;;;;;;;;;5068083;28;20503;-67
2022/02/22 01:20:37;;;;;;;7.97;1.88;;;;;;;;;;5052298;28;20043;-73
2022/02/22 01:23:22;;;;;;;8.98;2.05;;;;;;;;;;5065538;28;20048;-75
2022/02/22 01:26:07;;;;;;;9.90;2.42;;;;;;;;;;5062804;28;20031;-62
2022/02/22 01:28:53;;;;;;;10.30;2.60;;;;;;;;;;5058221;28;20296;-64
2022/02/22 01:31:38;;;;;;;7.22;2.05;;;;;;;;;;5069991;28;20012;-62
2022/02/22 01:34:23;;;;;;;7.20;1.83;;;;;;;;;;5073493;28;20028;-63
2022/02/22 01:37:09;;;;;;;11.77;2.03;;;;;;;;;;5059233;28;20479;-64
2022/02/22 01:39:54;;;;;;;8.90;2.20;;;;;;;;;;5068163;28;20096;-64
2022/02/22 01:42:39;;;;;;;5.40;1.85;;;;;;;;;;5073232;28;20062;-65
2022/02/22 01:45:25;;;;;;;6.82;1.67;;;;;;;;;;5057632;28;20490;-65
2022/02/22 01:48:10;;;;;;;12.60;2.03;;;;;;;;;;5067587;28;20032;-67
2022/02/22 01:50:55;;;;;;;9.48;2.20;;;;;;;;;;5070859;28;20030;-66
2022/02/22 01:53:41;;;;;;;10.10;1.73;;;;;;;;;;5068396;28;20399;-68
2022/02/22 01:56:26;;;;;;;9.50;1.88;;;;;;;;;;5071324;28;20028;-67
2022/02/22 01:59:12;;;;;;;6.90;1.50;;;;;;;;;;5070589;28;20028;-69
2022/02/22 02:01:57;;;;;;;7.70;2.30;;;;;;;;;;5064995;28;20099;-64
2022/02/22 02:04:42;;;;;;;6.85;2.03;;;;;;;;;;5052359;28;20028;-65
2022/02/22 02:07:28;;;;;;;8.07;2.10;;;;;;;;;;5066542;28;20028;-64
2022/02/22 02:10:13;;;;;;;7.80;1.52;;;;;;;;;;5067570;28;20396;-65
2022/02/22 02:12:58;;;;;;;7.07;1.60;;;;;;;;;;5056540;28;20028;-64
2022/02/22 02:15:43;;;;;;;7.03;1.88;;;;;;;;;;5062328;28;20024;-67
2022/02/22 02:18:29;;;;;;;6.93;1.77;;;;;;;;;;5068713;28;20461;-73
2022/02/22 02:21:14;;;;;;;8.05;2.20;;;;;;;;;;5059443;28;20043;-73
2022/02/22 02:24:10;;;;;;;4.45;1.33;;;;;;;;;;5059820;28;20031;-74
2022/02/22 02:26:56;;;;;;;5.65;1.55;;;;;;;;;;5069686;28;20051;-73
2022/02/22 02:29:44;;;;;;;6.53;2.22;;;;;;;;;;5067618;28;20078;-74
2022/02/22 02:32:30;;;;;;;7.63;2.20;;;;;;;;;;5067060;28;20431;-72
2022/02/22 02:35:15;;;;;;;8.77;2.58;;;;;;;;;;5066135;28;20437;-71
2022/02/22 02:38:00;;;;;;;10.43;2.00;;;;;;;;;;5055807;28;20111;-69
2022/02/22 02:40:45;;;;;;;10.82;2.10;;;;;;;;;;5070185;28;20519;-69
2022/02/22 02:43:31;;;;;;;10.85;2.25;;;;;;;;;;5050676;28;20497;-70
2022/02/22 02:46:16;;;;;;;11.25;2.38;;;;;;;;;;5089070;28;20115;-70
2022/02/22 02:49:01;;;;;;;9.68;2.40;;;;;;;;;;5068364;28;20123;-69
2022/02/22 02:51:47;;;;;;;5.18;1.55;;;;;;;;;;5068944;28;20032;-70
2022/02/22 02:54:32;;;;;;;10.15;1.77;;;;;;;;;;5070019;28;20524;-66
2022/02/22 02:57:18;;;;;;;8.45;2.00;;;;;;;;;;5072159;28;20038;-65
2022/02/22 03:00:05;;;;;;;6.10;2.08;;;;;;;;;;5069237;28;20063;-64
2022/02/22 03:02:50;;;;;;;8.77;1.80;;;;;;;;;;5072424;28;20016;-64
2022/02/22 03:05:35;;;;;;;7.82;2.03;;;;;;;;;;5075047;28;20031;-63
2022/02/22 03:08:20;;;;;;;4.95;1.88;;;;;;;;;;5076862;28;20024;-65
2022/02/22 03:11:06;;;;;;;12.27;2.92;;;;;;;;;;5068744;28;20024;-78
2022/02/22 03:13:52;;;;;;;8.98;2.47;;;;;;;;;;5065750;28;20478;-73
2022/02/22 03:16:37;;;;;;;13.10;2.10;;;;;;;;;;5059613;28;20417;-77
2022/02/22 03:19:22;;;;;;;8.02;2.05;;;;;;;;;;5066271;28;20073;-78
2022/02/22 03:22:07;;;;;;;15.73;2.88;;;;;;;;;;5076065;28;20016;-77
2022/02/22 03:24:52;;;;;;;8.68;3.50;;;;;;;;;;5063433;28;20079;-77
2022/02/22 03:27:38;;;;;;;10.27;2.05;;;;;;;;;;5072032;28;20043;-76
2022/02/22 03:30:23;;;;;;;7.82;1.60;;;;;;;;;;5075325;28;20042;-77
2022/02/22 03:33:10;;;;;;;10.23;2.40;;;;;;;;;;5075865;28;20055;-67
2022/02/22 03:35:55;;;;;;;9.18;2.10;;;;;;;;;;5068534;28;20081;-66
2022/02/22 03:38:41;;;;;;;18.80;2.50;;;;;;;;;;5075097;28;20448;-66
2022/02/22 03:41:27;;;;;;;13.18;2.30;;;;;;;;;;5072087;28;20032;-64
2022/02/22 03:44:12;;;;;;;12.02;2.03;;;;;;;;;;5067798;28;20040;-66
2022/02/22 03:46:57;;;;;;;12.65;1.92;;;;;;;;;;5068668;28;20035;-66
2022/02/22 03:49:43;;;;;;;7.57;1.90;;;;;;;;;;5069992;28;20025;-70
2022/02/22 03:52:28;;;;;;;5.65;1.67;;;;;;;;;;5075523;28;20084;-66
2022/02/22 03:55:14;;;;;;;9.98;2.15;;;;;;;;;;5069988;28;20037;-65
2022/02/22 03:57:59;;;;;;;7.18;1.88;;;;;;;;;;5071446;28;20020;-66
2022/02/22 04:00:44;;;;;;;7.20;1.75;;;;;;;;;;5075181;28;20031;-66
2022/02/22 04:03:29;;;;;;;10.35;2.95;;;;;;;;;;5070846;28;20031;-65
2022/02/22 04:06:14;;;;;;;8.95;2.10;;;;;;;;;;5068387;28;20548;-78
2022/02/22 04:09:00;;;;;;;8.90;3.40;;;;;;;;;;5069046;28;20020;-67
2022/02/22 04:11:45;;;;;;;8.43;2.72;;;;;;;;;;5057475;28;20036;-71
2022/02/22 04:14:30;;;;;;;7.40;2.13;;;;;;;;;;5074569;28;20028;-71
2022/02/22 04:17:15;;;;;;;9.30;2.13;;;;;;;;;;5071385;28;20029;-72
2022/02/22 04:20:01;;;;;;;8.73;2.50;;;;;;;;;;5073096;28;20072;-71
2022/02/22 04:22:46;;;;;;;8.40;2.00;;;;;;;;;;5080487;28;20430;-74
2022/02/22 04:25:32;;;;;;;6.82;1.95;;;;;;;;;;5073316;28;20032;-70
2022/02/22 04:28:17;;;;;;;8.57;2.92;;;;;;;;;;5075103;28;20051;-72
2022/02/22 04:31:02;;;;;;;9.38;3.03;;;;;;;;;;5073428;28;20055;-71
2022/02/22 04:33:48;;;;;;;6.95;1.95;;;;;;;;;;5068590;28;20036;-70
2022/02/22 04:36:33;;;;;;;11.75;2.63;;;;;;;;;;5069457;28;20391;-70
2022/02/22 04:39:18;;;;;;;10.68;2.28;;;;;;;;;;5074678;28;20444;-72
2022/02/22 04:42:04;;;;;;;8.93;2.80;;;;;;;;;;5061395;28;20031;-72
2022/02/22 04:44:49;;;;;;;5.78;2.33;;;;;;;;;;5072684;28;20028;-68
2022/02/22 04:47:35;;;;;;;7.65;2.55;;;;;;;;;;5068345;28;20032;-66
2022/02/22 04:50:21;;;;;;;8.35;2.17;;;;;;;;;;5069413;28;20036;-64
2022/02/22 04:53:08;;;;;;;10.10;2.80;;;;;;;;;;5070781;28;20504;-67
2022/02/22 04:55:53;;;;;;;9.32;1.95;;;;;;;;;;5063673;28;20035;-67
2022/02/22 04:58:39;;;;;;;9.77;2.28;;;;;;;;;;5073536;28;20024;-68
2022/02/22 05:01:24;;;;;;;6.07;2.03;;;;;;;;;;5074229;28;20028;-69
2022/02/22 05:04:11;;;;;;;9.25;1.80;;;;;;;;;;5073430;28;20013;-66
2022/02/22 05:06:56;;;;;;;10.07;2.72;;;;;;;;;;5067900;28;20047;-66
2022/02/22 05:09:41;;;;;;;5.72;2.20;;;;;;;;;;5057529;28;20046;-64
2022/02/22 05:12:27;;;;;;;9.73;2.83;;;;;;;;;;5071505;28;20023;-65
2022/02/22 05:15:12;;;;;;;8.00;2.25;;;;;;;;;;5067627;28;20035;-66
2022/02/22 05:17:57;;;;;;;10.45;2.67;;;;;;;;;;5061805;28;20028;-66
2022/02/22 05:20:54;;;;;;;11.95;2.10;;;;;;;;;;5072095;28;20276;-76
2022/02/22 05:23:39;;;;;;;10.05;3.03;;;;;;;;;;5072608;28;20036;-65
2022/02/22 05:26:24;;;;;;;7.53;2.10;;;;;;;;;;5074668;28;20088;-64
2022/02/22 05:29:10;;;;;;;8.90;2.15;;;;;;;;;;5072115;28;20059;-67
2022/02/22 05:31:55;;;;;;;10.30;2.75;;;;;;;;;;5068293;28;20031;-64
2022/02/22 05:34:40;;;;;;;9.52;2.85;;;;;;;;;;5059075;28;20024;-65
2022/02/22 05:37:26;;;;;;;8.98;2.22;;;;;;;;;;5069655;28;20024;-64
2022/02/22 05:40:11;;;;;;;4.63;2.20;;;;;;;;;;5073089;28;20060;-63
2022/02/22 05:42:57;;;;;;;9.40;2.22;;;;;;;;;;5074460;28;20070;-63
2022/02/22 05:45:42;;;;;;;7.10;2.55;;;;;;;;;;5072315;28;20450;-63
2022/02/22 05:48:27;;;;;;;10.32;2.33;;;;;;;;;;5065853;28;20027;-63
2022/02/22 05:51:13;;;;;;;11.00;2.30;;;;;;;;;;5054777;28;20028;-64
2022/02/22 05:53:58;;;;;;;15.43;2.13;;;;;;;;;;5056723;28;20036;-66
2022/02/22 05:56:44;;;;;;;8.90;2.78;;;;;;;;;;5072984;28;20070;-70
2022/02/22 05:59:29;;;;;;;13.38;2.95;;;;;;;;;;5068271;28;20032;-69
2022/02/22 06:02:14;;;;;;;6.63;1.90;;;;;;;;;;5068613;28;20024;-65
2022/02/22 06:04:59;;;;;;;10.23;2.40;;;;;;;;;;5084945;28;20552;-66
2022/02/22 06:07:45;;;;;;;8.82;2.08;;;;;;;;;;5067100;28;20060;-66
2022/02/22 06:10:30;;;;;;;7.38;2.78;;;;;;;;;;5061550;28;20070;-67
2022/02/22 06:13:15;;;;;;;11.68;2.28;;;;;;;;;;5055958;28;20097;-61
2022/02/22 06:16:00;;;;;;;11.27;2.70;;;;;;;;;;5067513;28;20032;-60
2022/02/22 06:18:46;;;;;;;8.55;2.10;;;;;;;;;;5072572;28;20094;-69
2022/02/22 06:21:31;;;;;;;9.73;2.38;;;;;;;;;;5068137;28;20051;-69
2022/02/22 06:24:16;;;;;;;8.02;2.10;;;;;;;;;;5044802;28;20407;-63
2022/02/22 06:27:02;;;;;;;11.48;2.60;;;;;;;;;;5069874;28;20528;-65
2022/02/22 06:29:47;;;;;;;8.43;2.30;;;;;;;;;;5072181;28;20024;-67
2022/02/22 06:32:32;;;;;;;8.20;2.53;;;;;;;;;;5071787;28;20151;-66
2022/02/22 06:35:18;;;;;;;9.30;2.13;;;;;;;;;;5049459;28;20511;-62
2022/02/22 06:38:03;;;;;;;8.55;2.45;;;;;;;;;;5063989;28;20369;-65
2022/02/22 06:40:48;;;;;;;10.25;2.58;;;;;;;;;;5058567;28;20040;-64
2022/02/22 06:43:34;;;;;;;7.80;2.03;;;;;;;;;;5070954;28;20016;-65
2022/02/22 06:46:19;;;;;;;12.50;2.92;;;;;;;;;;5065867;28;20119;-66
2022/02/22 06:49:04;;;;;;;12.82;2.40;;;;;;;;;;5060936;28;20414;-65
2022/02/22 06:51:50;;;;;;;8.68;2.88;;;;;;;;;;5051952;28;20445;-66
2022/02/22 06:54:35;;;;;;;9.20;3.40;;;;;;;;;;5044077;28;20032;-66
2022/02/22 06:57:20;;;;;;;15.90;2.60;;;;;;;;;;5042262;28;20101;-66
2022/02/22 07:00:09;;;;;;;9.27;3.10;;;;;;;;;;5086983;28;20122;-66
2022/02/22 07:02:54;;;;;;;11.82;2.83;;;;;;;;;;5071537;28;20104;-67
2022/02/22 07:05:40;;;;;;;10.23;3.00;;;;;;;;;;5071824;28;20510;-64
2022/02/22 07:08:25;;;;;;;5.57;2.30;;;;;;;;;;5086766;28;20028;-68
2022/02/22 07:11:10;;;;;;;8.18;2.88;;;;;;;;;;5059937;28;20111;-67
2022/02/22 07:13:56;;;;;;;12.27;3.75;;;;;;;;;;5059378;28;20663;-74
2022/02/22 07:16:41;;;;;;;14.88;3.53;;;;;;;;;;5067915;28;20021;-75
2022/02/22 07:19:26;;;;;;;11.35;2.88;;;;;;;;;;5064536;28;20563;-75
2022/02/22 07:22:11;;;;;;;11.10;3.95;;;;;;;;;;5082070;28;20040;-76
2022/02/22 07:24:57;;;;;;;13.10;4.00;;;;;;;;;;5067558;28;20465;-76
2022/02/22 07:27:44;;;;;;;10.25;3.10;;;;;;;;;;5047427;28;20032;-74
2022/02/22 07:30:30;;;;;;;12.00;3.25;;;;;;;;;;5069385;28;20099;-66
2022/02/22 07:33:15;;;;;;;13.60;3.35;;;;;;;;;;5062666;28;20036;-63
2022/02/22 07:36:00;;;;;;;11.07;3.80;;;;;;;;;;5050361;28;20491;-64
2022/02/22 07:38:45;;;;;;;9.15;2.67;;;;;;;;;;5073156;28;20554;-63
2022/02/22 07:41:31;;;;;;;9.45;2.42;;;;;;;;;;5063248;28;20035;-64
2022/02/22 07:44:16;;;;;;;8.68;2.50;;;;;;;;;;5065715;28;20071;-63
2022/02/22 07:47:01;;;;;;;12.05;2.42;;;;;;;;;;5070205;28;20027;-71
2022/02/22 07:49:47;;;;;;;8.43;2.42;;;;;;;;;;5074398;28;20031;-62
2022/02/22 07:52:33;;;;;;;12.30;2.58;;;;;;;;;;5058354;28;20111;-67
2022/02/22 07:55:19;;;;;;;6.78;2.10;;;;;;;;;;5063869;28;20070;-66
2022/02/22 07:58:04;;;;;;;12.85;2.85;;;;;;;;;;5072672;28;20016;-67
2022/02/22 08:00:50;;;;;;;10.75;2.58;;;;;;;;;;5046349;28;20043;-65
2022/02/22 08:03:36;;;;;;;11.27;3.08;;;;;;;;;;5065275;28;20048;-66
2022/02/22 08:06:21;;;;;;;11.43;2.63;;;;;;;;;;5066588;28;20027;-67
2022/02/22 08:09:06;;;;;;;9.75;2.55;;;;;;;;;;5050265;28;20023;-67
2022/02/22 08:11:52;;;;;;;8.68;2.13;;;;;;;;;;5068121;28;20724;-68
2022/02/22 08:14:37;;;;;;;9.10;3.05;;;;;;;;;;5071358;28;20024;-66
2022/02/22 08:17:23;;;;;;;10.07;2.80;;;;;;;;;;5074254;28;20502;-68
2022/02/22 08:20:08;;;;;;;15.93;2.90;;;;;;;;;;5061298;28;20055;-69
2022/02/22 08:22:54;;;;;;;6.95;2.50;;;;;;;;;;5073537;28;20453;-68
2022/02/22 08:25:39;;;;;;;12.20;2.50;;;;;;;;;;5056288;28;20027;-67
2022/02/22 08:28:24;;;;;;;9.13;2.40;;;;;;;;;;5064277;28;20036;-66
2022/02/22 08:31:10;;;;;;;10.55;4.00;;;;;;;;;;5064999;28;20020;-68
2022/02/22 08:33:58;;;;;;;13.18;2.78;;;;;;;;;;5071251;28;20028;-68
2022/02/22 08:36:44;;;;;;;10.15;2.88;;;;;;;;;;5063379;28;20092;-64
2022/02/22 08:39:29;;;;;;;10.88;3.97;;;;;;;;;;5068418;28;20073;-66
2022/02/22 08:42:14;;;;;;;10.95;3.65;;;;;;;;;;5066557;28;20027;-64
2022/02/22 08:44:59;;;;;;;8.27;2.10;;;;;;;;;;5068142;28;20023;-66
2022/02/22 08:47:45;;;;;;;7.93;2.80;;;;;;;;;;5067810;28;20036;-65
2022/02/22 08:50:30;;;;;;;9.60;2.30;;;;;;;;;;5070915;28;20360;-63
2022/02/22 08:53:17;;;;;;;10.68;3.10;;;;;;;;;;5062170;28;20040;-64
2022/02/22 08:56:03;;;;;;;14.52;2.72;;;;;;;;;;5065281;28;20108;-64
2022/02/22 08:58:48;;;;;;;9.18;2.88;;;;;;;;;;5062469;28;20028;-63
2022/02/22 09:01:33;;;;;;;10.98;2.38;;;;;;;;;;5071066;28;20020;-68
2022/02/22 09:04:18;;;;;;;10.15;3.47;;;;;;;;;;5064599;28;20028;-65
2022/02/22 09:07:04;;;;;;;10.75;2.88;;;;;;;;;;5065954;28;20031;-65
2022/02/22 09:09:49;;;;;;;11.77;2.63;;;;;;;;;;5067701;28;20048;-68
2022/02/22 09:12:34;;;;;;;9.27;2.42;;;;;;;;;;5065329;28;20025;-66
2022/02/22 09:15:21;;;;;;;10.02;2.13;;;;;;;;;;5069080;28;20107;-66
2022/02/22 09:18:06;;;;;;;9.85;2.72;;;;;;;;;;5070773;28;20032;-67
2022/02/22 09:20:51;;;;;;;13.43;2.65;;;;;;;;;;5065026;28;20161;-66
2022/02/22 09:23:36;;;;;;;9.48;2.75;;;;;;;;;;5062019;28;20029;-76
2022/02/22 09:26:22;;;;;;;11.15;2.85;;;;;;;;;;5047243;28;20032;-72
2022/02/22 09:29:07;;;;;;;7.60;2.55;;;;;;;;;;5063797;28;20548;-70
2022/02/22 09:31:52;;;;;;;8.85;2.25;;;;;;;;;;5044085;28;20158;-74
2022/02/22 09:34:38;;;;;;;10.77;3.10;;;;;;;;;;5058125;28;20109;-73
2022/02/22 09:37:23;;;;;;;9.63;2.42;;;;;;;;;;5061273;28;20037;-62
2022/02/22 09:40:09;;;;;;;10.15;2.90;;;;;;;;;;5078369;28;20028;-68
2022/02/22 09:42:54;;;;;;;12.90;2.92;;;;;;;;;;5063238;28;20025;-67
2022/02/22 09:45:40;;;;;;;7.93;2.47;;;;;;;;;;5075263;28;20109;-66
2022/02/22 09:48:25;;;;;;;10.40;2.63;;;;;;;;;;5039259;28;20231;-68
2022/02/22 09:51:10;;;;;;;7.82;2.78;;;;;;;;;;5044854;28;20063;-67
2022/02/22 09:53:56;;;;;;;6.38;1.67;;;;;;;;;;5079516;28;20036;-67
2022/02/22 09:56:44;;;;;;;8.02;2.30;;;;;;;;;;5051862;28;20032;-67
2022/02/22 09:59:30;;;;;;;11.02;3.42;;;;;;;;;;5061138;28;20090;-72
2022/02/22 10:02:15;;;;;;;10.15;2.17;;;;;;;;;;5062428;28;20423;-77
2022/02/22 10:05:10;;;;;;;8.77;2.38;;;;;;;;;;5041991;28;20017;-79
2022/02/22 10:08:03;;;;;;;12.27;2.83;;;;;;;;;;5063749;28;20029;-79
2022/02/22 10:10:48;;;;;;;8.98;2.63;;;;;;;;;;5045116;28;20476;-78
2022/02/22 10:13:33;;;;;;;12.60;2.53;;;;;;;;;;5069158;28;20063;-76
2022/02/22 10:16:19;;;;;;;6.95;2.25;;;;;;;;;;5061237;28;20433;-67
2022/02/22 10:19:04;;;;;;;15.10;2.75;;;;;;;;;;5072243;28;20556;-75
2022/02/22 10:21:59;;;;;;;8.88;4.05;;;;;;;;;;5055220;28;20024;-74
2022/02/22 10:24:45;;;;;;;6.13;2.10;;;;;;;;;;5067308;28;20070;-71
2022/02/22 10:27:50;;;;;;;10.80;2.78;;;;;;;;;;5062700;28;21694;-71
2022/02/22 10:30:40;;;;;;;12.40;2.95;;;;;;;;;;5063412;28;20472;-77
2022/02/22 10:33:28;;;;;;;12.68;3.42;;;;;;;;;;5081883;28;20425;-62
2022/02/22 10:36:19;;;;;;;15.30;3.50;;;;;;;;;;5078237;28;20027;-66
2022/02/22 10:39:06;;;;;;;12.55;2.88;;;;;;;;;;5061542;28;20052;-65
2022/02/22 10:41:52;;;;;;;8.25;2.50;;;;;;;;;;5066852;28;20492;-69
2022/02/22 10:44:38;;;;;;;12.32;2.63;;;;;;;;;;5089712;28;20505;-69
2022/02/22 10:47:24;;;;;;;9.57;2.72;;;;;;;;;;5070507;28;20125;-69
2022/02/22 10:50:09;;;;;;;9.73;3.15;;;;;;;;;;5059647;28;20035;-69
2022/02/22 10:52:54;;;;;;;14.30;3.50;;;;;;;;;;5046891;28;20024;-66
2022/02/22 10:55:40;;;;;;;7.45;2.35;;;;;;;;;;5046560;28;20032;-64
2022/02/22 10:58:25;;;;;;;12.32;2.83;;;;;;;;;;5050181;28;20035;-65
2022/02/22 11:01:13;;;;;;;10.90;3.67;;;;;;;;;;5091781;28;20024;-63
2022/02/22 11:03:58;;;;;;;14.48;3.15;;;;;;;;;;5059531;28;20513;-65
2022/02/22 11:06:43;;;;;;;10.98;3.15;;;;;;;;;;5061560;28;20030;-64
2022/02/22 11:09:29;;;;;;;5.93;2.75;;;;;;;;;;5070045;28;20085;-66
2022/02/22 11:12:40;;;;;;;11.10;2.72;;;;;;;;;;5072268;28;20107;-69
2022/02/22 11:15:33;;;;;;;9.40;2.65;;;;;;;;;;5072980;28;20029;-66
2022/02/22 11:18:20;;;;;;;11.02;2.88;;;;;;;;;;5060676;28;20035;-69
2022/02/22 11:21:08;;;;;;;8.38;2.38;;;;;;;;;;5069398;28;20518;-66
2022/02/22 11:24:08;;;;;;;8.07;2.65;;;;;;;;;;5059960;28;20016;-66
2022/02/22 11:26:57;;;;;;;11.85;2.65;;;;;;;;;;5064940;28;20115;-67
2022/02/22 11:29:42;;;;;;;9.85;3.00;;;;;;;;;;5065569;28;20032;-62
2022/02/22 11:32:27;;;;;;;8.00;2.67;;;;;;;;;;5090137;28;20021;-65
2022/02/22 11:35:17;;;;;;;11.60;3.13;;;;;;;;;;5057149;28;20402;-68
2022/02/22 11:38:03;;;;;;;11.75;3.17;;;;;;;;;;5101340;28;20024;-68
2022/02/22 11:40:52;;;;;;;12.98;3.03;;;;;;;;;;5067730;28;20039;-65
2022/02/22 11:43:49;;;;;;;10.52;2.30;;;;;;;;;;5074157;28;20036;-63
2022/02/22 11:46:35;;;;;;;12.75;2.92;;;;;;;;;;5074359;28;20032;-70
2022/02/22 11:49:21;;;;;;;9.13;2.65;;;;;;;;;;5055815;28;20030;-65
2022/02/22 11:52:10;;;;;;;10.13;3.15;;;;;;;;;;5067791;28;20445;-66
2022/02/22 11:55:00;;;;;;;10.75;2.45;;;;;;;;;;5057693;28;20140;-66
2022/02/22 11:57:46;;;;;;;10.05;3.78;;;;;;;;;;5055639;28;20071;-71
2022/02/22 12:00:33;;;;;;;12.45;3.30;;;;;;;;;;5049719;28;20031;-67
2022/02/22 12:03:21;;;;;;;11.18;3.80;;;;;;;;;;5060123;28;20038;-67
2022/02/22 12:06:06;;;;;;;7.07;2.92;;;;;;;;;;5064778;28;20039;-72
2022/02/22 12:08:51;;;;;;;10.98;2.92;;;;;;;;;;5053534;28;20051;-66
2022/02/22 12:11:36;;;;;;;9.95;3.28;;;;;;;;;;5067208;28;20040;-66
2022/02/22 12:14:22;;;;;;;6.85;2.15;;;;;;;;;;5065217;28;20047;-66
2022/02/22 12:17:10;;;;;;;12.98;2.95;;;;;;;;;;5062332;28;20035;-66
2022/02/22 12:19:56;;;;;;;14.48;3.35;;;;;;;;;;5069619;28;20056;-67
2022/02/22 12:22:41;;;;;;;12.20;2.65;;;;;;;;;;5048833;28;20089;-60
2022/02/22 12:25:26;;;;;;;12.98;2.47;;;;;;;;;;5073344;28;20153;-62
2022/02/22 12:28:12;;;;;;;7.28;2.53;;;;;;;;;;5049268;28;20474;-71
2022/02/22 12:30:58;;;;;;;13.52;2.95;;;;;;;;;;5075948;28;20047;-69
2022/02/22 12:33:44;;;;;;;13.30;2.67;;;;;;;;;;5056611;28;20403;-70
2022/02/22 12:36:30;;;;;;;10.32;2.63;;;;;;;;;;5056584;28;20433;-70
2022/02/22 12:39:17;;;;;;;13.55;2.92;;;;;;;;;;5059881;28;20039;-72
2022/02/22 12:42:03;;;;;;;11.05;3.28;;;;;;;;;;5065979;28;20357;-68
2022/02/22 12:44:50;;;;;;;9.88;2.83;;;;;;;;;;5069361;28;20040;-66
2022/02/22 12:47:36;;;;;;;15.02;2.97;;;;;;;;;;5068485;28;20036;-69
2022/02/22 12:50:22;;;;;;;12.27;3.40;;;;;;;;;;5066388;28;20020;-68
2022/02/22 12:53:07;;;;;;;9.25;3.33;;;;;;;;;;5047449;28;20043;-65
2022/02/22 12:55:54;;;;;;;14.10;3.15;;;;;;;;;;5067109;28;20051;-65
2022/02/22 12:58:39;;;;;;;14.55;3.45;;;;;;;;;;5066580;28;20036;-66
2022/02/22 13:01:26;;;;;;;15.45;3.25;;;;;;;;;;5071948;28;20031;-63
2022/02/22 13:04:13;;;;;;;10.13;2.90;;;;;;;;;;5056058;28;20043;-65
2022/02/22 13:07:00;;;;;;;11.90;3.10;;;;;;;;;;5065276;28;20036;-62
2022/02/22 13:09:48;;;;;;;15.38;3.58;;;;;;;;;;5068014;28;20058;-62
2022/02/22 13:12:34;;;;;;;12.85;3.53;;;;;;;;;;5065073;28;20386;-64
2022/02/22 13:15:22;;;;;;;14.68;3.50;;;;;;;;;;5066924;28;20035;-64
2022/02/22 13:18:12;;;;;;;12.07;3.38;;;;;;;;;;5069143;28;20036;-66
2022/02/22 13:20:57;;;;;;;;;;;;;;;;;;5061184;28;20048;-69
2022/02/22 13:23:43;;;;;;;16.13;3.80;;;;;;;;;;5062982;28;20259;-66
2022/02/22 13:26:36;;;;;;;12.65;3.85;;;;;;;;;;5061028;28;20028;-68
2022/02/22 13:29:21;;;;;;;14.00;3.20;;;;;;;;;;5065777;28;20560;-66
2022/02/22 13:32:10;;;;;;;18.00;4.07;;;;;;;;;;5093723;28;20024;-65
2022/02/22 13:34:56;;;;;;;13.80;3.53;;;;;;;;;;5065168;28;20485;-64
2022/02/22 13:37:43;;;;;;;12.13;3.25;;;;;;;;;;5060237;28;20085;-67
2022/02/22 13:40:31;;;;;;;14.63;3.00;;;;;;;;;;5060474;28;20059;-62
2022/02/22 13:43:16;;;;;;;11.52;3.42;;;;;;;;;;5062007;28;20036;-62
2022/02/22 13:46:02;;;;;;;14.27;4.43;;;;;;;;;;5069419;28;20117;-65
2022/02/22 13:48:48;;;;;;;11.40;3.10;;;;;;;;;;5050341;28;20068;-63
2022/02/22 13:51:37;;;;;;;11.70;2.95;;;;;;;;;;5075004;28;20036;-62
2022/02/22 13:54:24;;;;;;;13.60;3.92;;;;;;;;;;5076563;28;20278;-64
2022/02/22 13:57:14;;;;;;;16.23;4.35;;;;;;;;;;5074694;28;20031;-65
2022/02/22 13:59:59;;;;;;;9.73;2.97;;;;;;;;;;5061033;28;20058;-63
2022/02/22 14:02:45;;;;;;;16.38;3.90;;;;;;;;;;5068674;28;20028;-63
2022/02/22 14:05:30;;;;;;;16.92;3.60;;;;;;;;;;5068446;28;20039;-61
2022/02/22 14:08:16;;;;;;;13.95;3.50;;;;;;;;;;5059587;28;20036;-63
2022/02/22 14:11:01;;;;;;;13.27;3.67;;;;;;;;;;5065496;28;20231;-62
2022/02/22 14:13:46;;;;;;;13.60;3.05;;;;;;;;;;5063586;28;20167;-62
2022/02/22 14:16:32;;;;;;;11.52;3.67;;;;;;;;;;5069444;28;20024;-61
2022/02/22 14:19:17;;;;;;;13.98;3.25;;;;;;;;;;5065884;28;20055;-63
2022/02/22 14:22:02;;;;;;;11.50;3.17;;;;;;;;;;5067095;28;20384;-60
2022/02/22 14:24:48;;;;;;;10.88;3.20;;;;;;;;;;5049226;28;20031;-63
2022/02/22 14:27:34;;;;;;;13.38;3.28;;;;;;;;;;5064685;28;20029;-60
2022/02/22 14:30:19;;;;;;;13.73;3.58;;;;;;;;;;5067455;28;20083;-61
2022/02/22 14:33:05;;;;;;;16.88;3.85;;;;;;;;;;5060440;28;20021;-64
2022/02/22 14:35:50;;;;;;;10.75;3.00;;;;;;;;;;5070329;28;20024;-69
2022/02/22 14:38:36;;;;;;;10.40;3.85;;;;;;;;;;5068883;28;20044;-68
2022/02/22 14:41:21;;;;;;;10.82;3.65;;;;;;;;;;5064236;28;20028;-70
2022/02/22 14:44:07;;;;;;;14.40;3.05;;;;;;;;;;5064464;28;20073;-70
2022/02/22 14:46:53;;;;;;;11.60;3.47;;;;;;;;;;5074205;28;20039;-68
2022/02/22 14:49:38;;;;;;;15.52;3.70;;;;;;;;;;5062786;28;20508;-68
2022/02/22 14:52:23;;;;;;;10.80;3.00;;;;;;;;;;5075655;28;20376;-68
2022/02/22 14:55:12;;;;;;;13.15;3.40;;;;;;;;;;5047924;28;20048;-69
2022/02/22 14:57:58;;;;;;;15.48;3.17;;;;;;;;;;5070436;28;20495;-67
2022/02/22 15:00:43;;;;;;;12.25;3.53;;;;;;;;;;5065038;28;20063;-66
2022/02/22 15:03:28;;;;;;;18.25;5.07;;;;;;;;;;5052576;28;20066;-66
2022/02/22 15:06:14;;;;;;;12.55;4.07;;;;;;;;;;5068984;28;20077;-65
2022/02/22 15:08:59;;;;;;;12.00;3.83;;;;;;;;;;5067407;28;20165;-68
2022/02/22 15:11:45;;;;;;;9.23;2.88;;;;;;;;;;5062638;28;20111;-70
2022/02/22 15:14:31;;;;;;;12.70;3.72;;;;;;;;;;5072076;28;20093;-71
2022/02/22 15:17:16;;;;;;;16.30;4.18;;;;;;;;;;5069586;28;20563;-73
2022/02/22 15:20:02;;;;;;;11.25;3.33;;;;;;;;;;5011107;28;1108925;-70
2022/02/22 15:22:48;;;;;;;13.68;3.85;;;;;;;;;;5064500;28;20042;-71
2022/02/22 15:25:33;;;;;;;12.15;3.30;;;;;;;;;;5066933;28;20459;-69
2022/02/22 15:28:19;;;;;;;10.48;3.13;;;;;;;;;;5070026;28;20039;-64
2022/02/22 15:31:05;;;;;;;13.77;3.55;;;;;;;;;;5054144;28;20040;-67
2022/02/22 15:33:51;;;;;;;12.70;4.03;;;;;;;;;;5053812;28;20506;-66
2022/02/22 15:36:36;;;;;;;12.27;3.78;;;;;;;;;;5071127;28;20228;-67
2022/02/22 15:39:21;;;;;;;16.52;3.75;;;;;;;;;;5054096;28;20391;-68
2022/02/22 15:42:07;;;;;;;9.80;3.22;;;;;;;;;;5057676;28;20020;-65
2022/02/22 15:44:52;;;;;;;9.63;3.38;;;;;;;;;;5064698;28;20020;-66
2022/02/22 15:47:37;;;;;;;13.73;3.58;;;;;;;;;;5069668;28;20028;-65
2022/02/22 15:50:23;;;;;;;16.70;3.63;;;;;;;;;;5072565;28;20036;-67
2022/02/22 15:53:08;;;;;;;15.77;3.65;;;;;;;;;;5075966;28;20139;-67
2022/02/22 15:55:54;;;;;;;21.65;4.18;;;;;;;;;;5044894;28;20097;-67
2022/02/22 15:58:39;;;;;;;9.98;3.13;;;;;;;;;;5075074;28;20547;-66
2022/02/22 16:01:24;;;;;;;11.13;3.00;;;;;;;;;;5071603;28;20036;-66
2022/02/22 16:04:09;;;;;;;13.48;3.08;;;;;;;;;;5072593;28;20112;-62
2022/02/22 16:06:55;;;;;;;13.80;3.47;;;;;;;;;;5056836;28;20060;-64
2022/02/22 16:09:40;;;;;;;14.98;3.65;;;;;;;;;;5051211;28;20197;-63
2022/02/22 16:12:25;;;;;;;16.17;4.25;;;;;;;;;;5060211;28;20119;-63
2022/02/22 16:15:10;;;;;;;13.38;3.28;;;;;;;;;;5074602;28;20241;-68
2022/02/22 16:17:56;;;;;;;14.43;3.63;;;;;;;;;;5060833;28;20028;-64
2022/02/22 16:20:41;;;;;;;14.43;3.50;;;;;;;;;;5061476;28;20049;-66
2022/02/22 16:23:27;;;;;;;15.93;3.80;;;;;;;;;;5050736;28;20032;-65
2022/02/22 16:26:12;;;;;;;18.17;3.72;;;;;;;;;;5066270;28;20021;-65